메인 페이지
METAR-TAF:

METAR-TAF

공항 :

아타튀르크 국제공항

이스탄불 이스탄불, 터키

위도: 40-58N, 경도: 028-49E, 고도: 48m

현재 날씨관측

예보는 29분 전, 09:20시(UTC)에 발표되었습니다.
북북동12kt풍과 동북동풍을 오가는
온도 20°C
습도 78%
기압 1021 hPa
시정 10km 이상
고도 3000ft 상공 구름 보통
고도 9000ft 상공 구름 많음

METAR: LTBA 150920Z 02012KT 360V070 9999 SCT030 BKN090 20/16 Q1021 NOSIG RMK RWY17L 03013KT RWY05 01013KT RWY23 03013KT

시각: 12:49 (09:49 UTC)

예보

예보는 3 시간 14분 전, 06:35시(UTC)에 발표되었습니다.
예보 대상 시간: 15일 06시부터 16일 12시까지 (UTC)
북북동13kt
시정 10km 이상
고도 3500ft 상공 구름 보통
고도 9000ft 상공 구름 많음
일시적
15일 06시부터 15일 10시까지 (UTC)
고도 1700ft 상공 구름 조금
고도 2700ft 상공 구름 많음
약한소나기
일시적
15일 10시부터 15일 14시까지 (UTC)
고도 1700ft 상공 구름 조금
고도 2700ft 상공 구름 많음
약한소나기
전환 중
15일 19시부터 15일 22시까지 (UTC)
여러 방향의 바람 2kt
전환 중
16일 07시부터 16일 10시까지 (UTC)
북북동13kt

TAF: LTBA 150635Z 1506/1612 02013KT 9999 SCT035 BKN090 TEMPO 1506/1510 -SHRA FEW017 BKN027 TEMPO 1510/1514 -SHRA FEW017 BKN027 BECMG 1519/1522 VRB02KT BECMG 1607/1610 02013KT

4,000개 이상의 공항 관측 자료 및 예보 (METAR 및 TAF 보고).

지도상에서 검색 가능한 기상관측소가 노란 점과 빨간 점으로 표시되어 있습니다.

기상관측소 명을 보려면 표시 위로 마우스를 이동하세요.

날씨 관측과 예보를 보려면 클릭하세요.

지도 변경 : 확대하려면 엑스 표시가 있는 녹색 버튼, 축소하려면 빼기 표시가 있는 녹색 버튼, 다음 페이지의 지도를 보려면 녹색 화살표를 클릭하세요.


METAR-TAF: